Time;durP1;ratioP1;P1;durP2;ratioP2;P2;SDS_P1;SDS_P2;PMS_P1;PMS_P2;Temp;Humidity;BMP_temperature;BMP_pressure;BME280_temperature;BME280_humidity;BME280_pressure;Samples;Min_cycle;Max_cycle;Signal;HPM_P1;HPM_P2
2023/10/17 00:02:11;;;;;;;11.52;6.97;;;7.00;99.90;;;;;;5065272;28;20056;-77
2023/10/17 00:04:59;;;;;;;16.08;7.68;;;7.00;99.90;;;;;;5065833;28;20020;-78
2023/10/17 00:07:48;;;;;;;30.87;9.47;;;7.00;99.90;;;;;;5065776;28;20060;-78
2023/10/17 00:10:49;;;;;;;17.95;9.70;;;7.00;99.90;;;;;;5066015;28;20043;-79
2023/10/17 00:13:38;;;;;;;18.63;10.07;;;7.00;99.90;;;;;;5065253;28;20041;-78
2023/10/17 00:16:29;;;;;;;17.95;9.73;;;7.00;99.90;;;;;;5065414;28;20055;-80
2023/10/17 00:19:16;;;;;;;28.70;9.75;;;7.10;99.90;;;;;;5067087;28;20071;-80
2023/10/17 00:22:02;;;;;;;113.60;12.90;;;7.10;99.90;;;;;;5064745;28;20022;-79
2023/10/17 00:24:54;;;;;;;67.10;11.02;;;7.10;99.90;;;;;;5064423;28;20259;-80
2023/10/17 00:27:40;;;;;;;220.65;16.15;;;7.00;99.90;;;;;;5075707;28;20083;-80
2023/10/17 00:30:30;;;;;;;28.90;8.85;;;7.00;99.90;;;;;;5064976;28;20025;-80
2023/10/17 00:33:20;;;;;;;13.77;8.50;;;7.00;99.90;;;;;;5078835;28;20028;-80
2023/10/17 00:36:14;;;;;;;20.23;8.00;;;7.00;99.90;;;;;;5078439;28;20044;-79
2023/10/17 00:39:08;;;;;;;12.63;7.78;;;7.00;99.90;;;;;;5078616;28;20097;-80
2023/10/17 00:44:53;;;;;;;54.53;9.52;;;7.00;99.90;;;;;;5055996;28;20041;-79
2023/10/17 00:47:56;;;;;;;24.35;8.98;;;6.90;99.90;;;;;;5027355;28;20533;-79
2023/10/17 00:50:46;;;;;;;88.18;12.13;;;6.90;99.90;;;;;;5030918;28;20043;-79
2023/10/17 00:53:39;;;;;;;73.68;9.50;;;6.90;99.90;;;;;;5019053;28;20393;-79
2023/10/17 00:56:26;;;;;;;59.17;10.43;;;6.80;99.90;;;;;;5022052;28;20091;-79
2023/10/17 00:59:15;;;;;;;50.53;8.70;;;6.80;99.90;;;;;;5024785;28;20792;-79
2023/10/17 01:02:09;;;;;;;51.58;10.07;;;6.80;99.90;;;;;;5044407;28;20051;-79
2023/10/17 01:04:59;;;;;;;12.18;8.27;;;6.80;99.90;;;;;;5046232;28;20067;-79
2023/10/17 01:07:50;;;;;;;12.23;7.60;;;6.80;99.90;;;;;;5060495;28;20576;-79
2023/10/17 01:10:40;;;;;;;70.63;9.00;;;6.70;99.90;;;;;;5026224;28;20048;-79
2023/10/17 01:13:29;;;;;;;106.78;10.43;;;6.80;99.90;;;;;;5021332;28;20025;-79
2023/10/17 01:16:16;;;;;;;12.63;7.30;;;6.80;99.90;;;;;;5033962;28;20041;-78
2023/10/17 01:19:10;;;;;;;67.72;8.98;;;6.80;99.90;;;;;;5035368;28;20033;-79
2023/10/17 01:21:56;;;;;;;103.60;11.00;;;6.80;99.90;;;;;;5010394;28;20041;-79
2023/10/17 01:24:45;;;;;;;23.17;9.05;;;6.70;99.90;;;;;;5019277;28;20066;-79
2023/10/17 01:27:34;;;;;;;107.43;11.65;;;6.70;99.90;;;;;;5029125;28;20076;-79
2023/10/17 01:30:22;;;;;;;53.40;9.68;;;6.70;99.90;;;;;;5040543;28;20055;-79
2023/10/17 01:33:12;;;;;;;194.80;13.73;;;6.80;99.90;;;;;;5019414;28;20650;-79
2023/10/17 01:36:01;;;;;;;11.95;8.48;;;6.70;99.90;;;;;;5026564;28;20036;-79
2023/10/17 01:38:49;;;;;;;12.60;8.45;;;6.60;99.90;;;;;;5035765;28;20044;-79
2023/10/17 01:41:48;;;;;;;26.90;8.55;;;6.70;99.90;;;;;;5046825;28;20032;-79
2023/10/17 01:44:34;;;;;;;25.35;8.52;;;6.70;99.90;;;;;;5022119;28;20147;-79
2023/10/17 01:47:25;;;;;;;52.22;10.23;;;6.80;99.90;;;;;;5006105;28;20041;-79
2023/10/17 01:50:22;;;;;;;63.00;11.45;;;6.80;99.90;;;;;;5008867;28;20113;-79
2023/10/17 01:53:13;;;;;;;298.90;16.15;;;6.80;99.90;;;;;;5020931;28;20049;-79
2023/10/17 01:56:38;;;;;;;57.05;10.02;;;6.80;99.90;;;;;;5048215;28;20059;-79
2023/10/17 02:02:37;;;;;;;62.22;10.35;;;6.70;99.90;;;;;;5032248;28;20067;-79
2023/10/17 02:05:23;;;;;;;52.92;10.25;;;6.70;99.90;;;;;;5029750;28;21062;-79
2023/10/17 02:08:09;;;;;;;78.88;11.18;;;6.60;99.90;;;;;;5026178;28;20060;-79
2023/10/17 02:10:56;;;;;;;57.40;10.63;;;6.70;99.90;;;;;;5011383;28;20033;-79
2023/10/17 02:13:45;;;;;;;55.13;9.98;;;6.50;99.90;;;;;;5013325;28;20114;-79
2023/10/17 02:16:32;;;;;;;156.27;12.70;;;6.60;99.90;;;;;;5012142;28;20535;-79
2023/10/17 02:22:37;;;;;;;171.75;13.80;;;6.60;99.90;;;;;;5011082;28;20694;-79
2023/10/17 02:25:34;;;;;;;38.33;8.95;;;6.60;99.90;;;;;;5023971;28;20045;-79
2023/10/17 02:28:24;;;;;;;207.27;14.75;;;6.50;99.90;;;;;;5031218;28;20044;-79
2023/10/17 02:31:16;;;;;;;48.00;9.20;;;6.50;99.90;;;;;;5015962;28;20037;-79
2023/10/17 02:34:09;;;;;;;21.02;8.32;;;6.40;99.90;;;;;;5060867;28;20036;-79
2023/10/17 02:37:01;;;;;;;41.53;9.45;;;6.50;99.90;;;;;;5037630;28;20736;-79
2023/10/17 02:39:47;;;;;;;14.82;8.77;;;6.50;99.90;;;;;;5041664;28;20047;-79
2023/10/17 02:42:33;;;;;;;67.97;9.98;;;6.50;99.90;;;;;;5043388;28;20109;-79
2023/10/17 02:45:41;;;;;;;11.80;8.15;;;6.50;99.90;;;;;;5048853;28;20048;-79
2023/10/17 02:48:37;;;;;;;10.57;8.10;;;6.50;99.90;;;;;;5047270;28;20076;-79
2023/10/17 02:51:31;;;;;;;12.73;8.32;;;6.40;99.90;;;;;;5048995;28;20040;-79
2023/10/17 02:54:20;;;;;;;22.90;8.65;;;6.50;99.90;;;;;;5035090;28;20033;-79
2023/10/17 02:57:09;;;;;;;13.18;8.05;;;6.60;99.90;;;;;;5023332;28;20628;-79
2023/10/17 03:00:03;;;;;;;9.88;7.72;;;6.50;99.90;;;;;;5013014;28;20040;-79
2023/10/17 03:02:57;;;;;;;12.80;9.18;;;6.60;99.90;;;;;;5036961;28;20064;-79
2023/10/17 03:05:48;;;;;;;9.90;7.20;;;6.60;99.90;;;;;;5049151;28;20047;-79
2023/10/17 03:08:37;;;;;;;9.95;7.60;;;6.60;99.90;;;;;;5050933;28;20141;-79
2023/10/17 03:11:35;;;;;;;31.73;7.85;;;6.50;99.90;;;;;;5015173;28;20498;-79
2023/10/17 03:14:22;;;;;;;53.65;9.27;;;6.60;99.90;;;;;;5020585;28;20041;-79
2023/10/17 03:17:17;;;;;;;17.27;6.95;;;6.50;99.90;;;;;;5027836;28;20048;-79
2023/10/17 03:20:07;;;;;;;13.00;7.07;;;6.50;99.90;;;;;;5024892;28;20544;-79
2023/10/17 03:22:56;;;;;;;69.30;10.13;;;6.50;99.90;;;;;;5062396;28;20090;-79
2023/10/17 03:25:46;;;;;;;69.75;9.30;;;6.30;99.90;;;;;;5060812;28;20834;-79
2023/10/17 03:28:36;;;;;;;46.95;8.43;;;6.40;99.90;;;;;;5047949;28;20041;-79
2023/10/17 03:31:26;;;;;;;25.85;7.95;;;6.40;99.90;;;;;;5015403;28;20114;-79
2023/10/17 03:34:36;;;;;;;70.00;9.25;;;6.40;99.90;;;;;;5028316;28;20488;-79
2023/10/17 03:40:29;;;;;;;20.73;8.18;;;6.20;99.90;;;;;;5008231;28;20092;-79
2023/10/17 03:43:15;;;;;;;25.42;7.43;;;6.20;99.90;;;;;;5014226;28;20052;-79
2023/10/17 03:46:05;;;;;;;83.45;8.98;;;6.20;99.90;;;;;;5028321;28;20071;-79
2023/10/17 03:49:00;;;;;;;49.70;8.65;;;6.20;99.90;;;;;;5021582;28;20115;-79
2023/10/17 03:51:54;;;;;;;42.70;8.50;;;6.20;99.90;;;;;;5023927;28;20048;-79
2023/10/17 03:54:43;;;;;;;10.48;7.00;;;6.20;99.90;;;;;;5052907;28;20037;-79
2023/10/17 03:57:31;;;;;;;116.88;11.88;;;6.20;99.90;;;;;;5042129;28;20037;-79
2023/10/17 04:00:44;;;;;;;82.53;9.80;;;6.20;99.90;;;;;;5028932;28;20036;-79
2023/10/17 04:03:27;;;;;;;194.05;14.50;;;6.10;99.90;;;;;;5064858;28;20036;-79
2023/10/17 04:09:26;;;;;;;39.15;8.60;;;6.20;99.90;;;;;;5051997;28;20036;-79
2023/10/17 04:12:20;;;;;;;72.18;10.50;;;6.20;99.90;;;;;;5050675;28;20131;-79
2023/10/17 04:15:09;;;;;;;72.60;11.57;;;6.20;99.90;;;;;;5046729;28;20126;-79
2023/10/17 04:18:04;;;;;;;51.58;8.48;;;6.20;99.90;;;;;;5008861;28;20124;-79
2023/10/17 04:20:58;;;;;;;44.25;8.18;;;6.20;99.90;;;;;;5021851;28;20037;-79
2023/10/17 04:23:49;;;;;;;212.82;13.40;;;6.20;99.90;;;;;;5021079;28;20033;-79
2023/10/17 04:26:36;;;;;;;172.48;11.73;;;6.20;99.90;;;;;;5008021;28;20042;-79
2023/10/17 04:29:29;;;;;;;105.78;9.90;;;6.20;99.90;;;;;;5023528;28;20044;-79
2023/10/17 04:32:17;;;;;;;67.95;9.57;;;6.20;99.90;;;;;;5060455;28;20021;-79
2023/10/17 04:35:03;;;;;;;11.65;7.30;;;6.30;99.90;;;;;;5071223;28;20017;-79
2023/10/17 04:38:09;;;;;;;17.63;7.65;;;6.30;99.90;;;;;;5085712;28;20039;-80
2023/10/17 04:41:30;;;;;;;25.08;8.15;;;6.30;99.90;;;;;;5087891;28;20072;-79
2023/10/17 04:44:16;;;;;;;61.63;9.18;;;6.30;99.90;;;;;;5075038;28;20043;-80
2023/10/17 04:49:54;;;;;;;533.22;24.85;;;6.30;99.90;;;;;;5085285;28;20080;-80
2023/10/17 04:52:41;;;;;;;86.22;9.88;;;6.30;99.90;;;;;;5071228;28;20036;-80
2023/10/17 04:55:40;;;;;;;91.97;10.52;;;6.30;99.90;;;;;;5070709;28;20020;-80
2023/10/17 04:58:39;;;;;;;203.32;13.98;;;6.30;99.90;;;;;;5085059;28;20049;-80
2023/10/17 06:18:18;;;;;;;16.98;5.75;;;6.30;99.90;;;;;;5059591;28;20060;-80
2023/10/17 06:24:06;;;;;;;9.23;5.40;;;6.30;99.90;;;;;;5036484;28;20038;-78
2023/10/17 06:27:12;;;;;;;7.57;5.15;;;6.20;99.90;;;;;;5025243;28;20041;-80
2023/10/17 06:33:19;;;;;;;37.40;5.88;;;6.30;99.90;;;;;;5033337;28;20045;-77
2023/10/17 06:36:24;;;;;;;10.80;6.15;;;6.20;99.90;;;;;;4993885;28;20096;-77
2023/10/17 06:39:19;;;;;;;11.85;5.82;;;6.30;99.90;;;;;;4982522;28;20042;-77
2023/10/17 06:42:14;;;;;;;13.32;5.43;;;6.30;99.90;;;;;;5008619;28;20041;-78
2023/10/17 06:45:07;;;;;;;8.55;5.60;;;6.20;99.90;;;;;;4995890;28;20042;-78
2023/10/17 06:47:59;;;;;;;24.38;4.97;;;6.20;99.90;;;;;;4981029;28;20042;-78
2023/10/17 06:53:55;;;;;;;18.42;4.25;;;6.20;99.90;;;;;;5009333;28;20124;-78
2023/10/17 06:56:49;;;;;;;8.07;4.18;;;6.20;99.90;;;;;;5007534;28;20474;-78
2023/10/17 06:59:35;;;;;;;41.60;5.85;;;6.10;99.90;;;;;;5000802;28;20121;-77
2023/10/17 07:05:26;;;;;;;7.40;4.82;;;6.10;99.90;;;;;;4999744;28;20651;-78
2023/10/17 07:08:15;;;;;;;8.75;4.93;;;6.10;99.90;;;;;;4997476;28;20060;-78
2023/10/17 07:13:56;;;;;;;14.77;5.13;;;6.10;99.90;;;;;;5016280;28;20139;-78
2023/10/17 07:16:42;;;;;;;12.07;5.20;;;6.10;99.90;;;;;;5002404;28;20045;-74
2023/10/17 07:22:15;;;;;;;6.93;4.63;;;6.10;99.90;;;;;;5004940;28;20041;-75
2023/10/17 07:25:02;;;;;;;6.80;5.03;;;6.20;99.90;;;;;;4994115;28;20054;-75
2023/10/17 07:27:49;;;;;;;13.85;4.82;;;6.10;99.90;;;;;;4973255;28;20286;-75
2023/10/17 07:30:35;;;;;;;41.58;7.07;;;6.20;99.90;;;;;;4998665;28;20096;-75
2023/10/17 07:33:23;;;;;;;129.10;9.45;;;6.20;99.90;;;;;;4986672;28;20125;-75
2023/10/17 07:36:15;;;;;;;19.47;5.73;;;6.20;99.90;;;;;;4986603;28;20494;-75
2023/10/17 07:39:06;;;;;;;20.30;5.03;;;6.20;99.90;;;;;;5001676;28;20284;-75
2023/10/17 07:41:53;;;;;;;121.72;9.55;;;6.20;99.90;;;;;;5017898;28;20037;-75
2023/10/17 07:44:41;;;;;;;33.53;5.70;;;6.20;99.90;;;;;;5024804;28;20033;-75
2023/10/17 07:47:36;;;;;;;;;;;6.20;99.90;;;;;;5021265;28;20091;-75
2023/10/17 07:50:25;;;;;;;35.88;5.97;;;6.30;99.90;;;;;;5010280;28;19973;-75
2023/10/17 07:53:11;;;;;;;38.80;5.80;;;6.30;99.90;;;;;;5023207;28;20049;-75
2023/10/17 07:56:04;;;;;;;19.73;4.93;;;6.30;99.90;;;;;;5037256;28;20034;-75
2023/10/17 07:58:56;;;;;;;30.40;4.78;;;6.30;99.90;;;;;;5042120;28;20052;-75
2023/10/17 08:01:46;;;;;;;25.08;4.95;;;6.40;99.90;;;;;;5015153;28;20053;-75
2023/10/17 08:04:34;;;;;;;18.52;4.93;;;6.40;99.90;;;;;;5038006;28;20045;-75
2023/10/17 08:11:07;;;;;;;9.75;5.40;;;6.40;99.90;;;;;;5031570;28;20033;-75
2023/10/17 08:13:58;;;;;;;146.32;8.73;;;6.50;99.90;;;;;;5006800;28;20427;-75
2023/10/17 08:16:49;;;;;;;25.35;6.30;;;6.50;99.90;;;;;;5038154;28;20056;-76
2023/10/17 08:23:06;;;;;;;11.57;5.30;;;6.60;99.90;;;;;;5008310;28;20045;-75
2023/10/17 08:26:10;;;;;;;55.28;6.28;;;6.60;99.90;;;;;;5036513;28;20052;-75
2023/10/17 08:28:56;;;;;;;40.13;6.45;;;6.60;99.90;;;;;;5038057;28;20041;-76
2023/10/17 08:31:45;;;;;;;15.77;5.82;;;6.70;99.90;;;;;;5020121;28;20041;-75
2023/10/17 08:34:41;;;;;;;35.08;6.82;;;6.70;99.90;;;;;;5028908;28;20037;-75
2023/10/17 08:37:28;;;;;;;21.70;6.25;;;6.70;99.90;;;;;;5021117;28;20048;-75
2023/10/17 08:43:20;;;;;;;12.88;7.22;;;6.80;99.90;;;;;;5039136;28;20044;-76
2023/10/17 08:46:10;;;;;;;23.33;6.70;;;6.90;99.90;;;;;;5044007;28;20052;-76
2023/10/17 08:48:56;;;;;;;10.85;6.47;;;6.90;99.90;;;;;;5014423;28;20046;-76
2023/10/17 08:51:51;;;;;;;50.30;10.23;;;6.90;99.90;;;;;;5041700;28;20048;-76
2023/10/17 08:54:37;;;;;;;16.13;8.00;;;6.90;99.90;;;;;;4995331;28;20044;-75
2023/10/17 08:57:24;;;;;;;40.08;9.77;;;7.00;99.90;;;;;;5019548;28;20140;-79
2023/10/17 09:03:00;;;;;;;53.03;11.13;;;7.10;99.90;;;;;;5032746;28;20045;-78
2023/10/17 09:06:06;;;;;;;21.58;12.90;;;7.20;99.90;;;;;;5033709;28;20038;-78
2023/10/17 09:12:02;;;;;;;25.95;9.65;;;7.40;99.90;;;;;;5032739;28;20091;-78
2023/10/17 09:14:52;;;;;;;16.52;8.45;;;7.40;99.90;;;;;;5030257;28;20727;-78
2023/10/17 09:17:39;;;;;;;33.63;9.95;;;7.50;99.90;;;;;;5023898;28;20041;-77
2023/10/17 09:20:35;;;;;;;20.50;8.20;;;7.60;99.90;;;;;;5005714;28;20069;-78
2023/10/17 09:23:27;;;;;;;18.38;8.07;;;7.60;99.90;;;;;;5047299;28;20041;-78
2023/10/17 09:26:19;;;;;;;15.60;8.63;;;7.70;99.90;;;;;;4987864;28;20049;-78
2023/10/17 09:29:05;;;;;;;15.93;8.80;;;7.70;99.90;;;;;;5013808;28;20102;-78
2023/10/17 09:31:51;;;;;;;16.17;8.52;;;7.80;99.90;;;;;;5024190;28;20860;-78
2023/10/17 09:34:41;;;;;;;23.38;10.05;;;7.80;99.90;;;;;;5033411;28;20045;-78
2023/10/17 09:37:27;;;;;;;19.30;9.38;;;7.90;99.90;;;;;;5043191;28;20052;-78
2023/10/17 09:40:14;;;;;;;13.77;9.02;;;7.90;99.90;;;;;;5004813;28;20107;-79
2023/10/17 09:43:00;;;;;;;15.93;8.23;;;8.00;99.90;;;;;;5032540;28;20051;-78
2023/10/17 09:45:47;;;;;;;13.88;8.38;;;8.10;99.90;;;;;;4998487;28;20042;-78
2023/10/17 09:48:34;;;;;;;37.03;8.73;;;8.10;99.90;;;;;;5017214;28;20409;-78
2023/10/17 09:51:22;;;;;;;13.73;8.23;;;8.20;99.90;;;;;;5021784;28;20342;-78
2023/10/17 09:54:08;;;;;;;21.40;9.25;;;8.20;99.90;;;;;;5020039;28;20045;-78
2023/10/17 09:56:54;;;;;;;16.40;8.85;;;8.20;99.90;;;;;;5013731;28;20072;-78
2023/10/17 09:59:42;;;;;;;15.05;7.75;;;8.20;99.90;;;;;;5013557;28;20038;-78
2023/10/17 10:02:31;;;;;;;11.90;7.80;;;8.30;99.90;;;;;;4993439;28;20466;-78
2023/10/17 10:05:28;;;;;;;15.38;8.02;;;8.30;99.90;;;;;;5046082;28;20401;-78
2023/10/17 10:08:33;;;;;;;14.68;8.63;;;8.40;99.90;;;;;;5009187;28;20486;-78
2023/10/17 10:11:19;;;;;;;14.25;7.53;;;8.40;99.90;;;;;;5012339;28;20069;-78
2023/10/17 10:14:09;;;;;;;10.65;6.63;;;8.50;99.90;;;;;;4999032;28;20034;-78
2023/10/17 10:17:05;;;;;;;10.98;7.07;;;8.60;99.90;;;;;;5025377;28;20069;-77
2023/10/17 10:19:56;;;;;;;10.80;7.25;;;8.60;99.90;;;;;;5025365;28;20533;-77
2023/10/17 10:22:49;;;;;;;13.57;7.53;;;8.70;99.90;;;;;;5013322;28;20054;-77
2023/10/17 10:26:02;;;;;;;12.77;7.95;;;8.80;99.90;;;;;;5033018;28;20037;-78
2023/10/17 10:28:48;;;;;;;12.57;8.27;;;8.80;99.90;;;;;;5014504;28;20662;-78
2023/10/17 10:31:39;;;;;;;12.52;8.13;;;8.90;99.90;;;;;;5011450;28;20034;-78
2023/10/17 10:34:25;;;;;;;14.52;8.65;;;8.90;99.90;;;;;;4980376;28;20344;-78
2023/10/17 10:37:13;;;;;;;14.45;9.20;;;8.90;99.90;;;;;;5006251;28;20454;-78
2023/10/17 10:40:12;;;;;;;14.63;9.25;;;8.90;99.90;;;;;;4991588;28;20113;-78
2023/10/17 10:43:01;;;;;;;13.38;9.13;;;9.00;99.90;;;;;;5003932;28;20061;-78
2023/10/17 10:45:55;;;;;;;13.90;9.00;;;9.00;99.90;;;;;;5009121;28;20419;-78
2023/10/17 10:49:07;;;;;;;13.25;9.93;;;9.00;99.90;;;;;;5009973;28;20061;-78
2023/10/17 10:51:57;;;;;;;14.15;9.85;;;8.90;99.90;;;;;;5013771;28;20072;-78
2023/10/17 10:54:50;;;;;;;13.43;9.15;;;8.90;99.90;;;;;;5036509;28;20049;-78
2023/10/17 10:57:37;;;;;;;12.20;8.68;;;8.90;99.90;;;;;;5014636;28;20042;-78
2023/10/17 11:00:23;;;;;;;13.90;9.88;;;8.90;99.90;;;;;;5032460;28;20044;-78
2023/10/17 11:03:09;;;;;;;14.25;9.45;;;9.00;99.90;;;;;;5027944;28;20791;-78
2023/10/17 11:05:57;;;;;;;15.75;9.55;;;9.00;99.90;;;;;;5013632;28;20409;-78
2023/10/17 11:08:46;;;;;;;14.70;10.50;;;9.00;99.90;;;;;;5040027;28;20048;-78
2023/10/17 11:11:33;;;;;;;17.20;10.75;;;9.00;99.90;;;;;;5054043;28;20095;-78
2023/10/17 11:14:21;;;;;;;16.13;9.73;;;9.00;99.90;;;;;;5030719;28;20032;-77
2023/10/17 11:17:09;;;;;;;15.10;9.68;;;9.00;99.90;;;;;;5049503;28;20044;-78
2023/10/17 11:19:57;;;;;;;13.82;9.25;;;9.00;99.90;;;;;;5055682;28;20727;-78
2023/10/17 11:22:44;;;;;;;12.85;9.35;;;9.00;99.90;;;;;;5027560;28;20037;-78
2023/10/17 11:25:31;;;;;;;12.40;8.70;;;9.10;99.90;;;;;;5013510;28;20036;-78
2023/10/17 11:28:17;;;;;;;12.20;8.10;;;9.10;99.90;;;;;;5013041;28;20041;-78
2023/10/17 11:31:12;;;;;;;14.25;8.75;;;9.10;99.90;;;;;;5026217;28;20033;-78
2023/10/17 11:34:07;;;;;;;15.75;9.25;;;9.20;99.90;;;;;;5014181;28;20464;-78
2023/10/17 11:36:55;;;;;;;15.10;9.10;;;9.30;99.90;;;;;;5041414;28;20402;-78
2023/10/17 11:39:42;;;;;;;16.00;9.40;;;9.30;99.90;;;;;;5061720;28;20507;-78
2023/10/17 11:42:34;;;;;;;20.13;10.25;;;9.40;99.90;;;;;;5060747;28;20101;-77
2023/10/17 11:45:25;;;;;;;17.48;9.35;;;9.40;99.90;;;;;;5032069;28;20132;-78
2023/10/17 11:48:33;;;;;;;11.85;9.23;;;9.40;99.90;;;;;;5031873;28;20040;-78
2023/10/17 11:51:25;;;;;;;13.65;8.77;;;9.50;99.90;;;;;;5059162;28;20041;-78
2023/10/17 11:54:11;;;;;;;12.43;8.63;;;9.60;99.90;;;;;;5007524;28;20061;-78
2023/10/17 11:57:14;;;;;;;10.32;8.65;;;9.60;99.90;;;;;;5005727;28;20072;-77
2023/10/17 12:00:06;;;;;;;12.27;7.90;;;9.70;99.90;;;;;;5007749;28;20485;-78
2023/10/17 12:02:52;;;;;;;14.98;8.23;;;9.90;99.90;;;;;;5021668;28;20045;-78
2023/10/17 12:05:38;;;;;;;10.70;6.75;;;10.20;99.90;;;;;;5010757;28;20041;-78
2023/10/17 12:08:29;;;;;;;12.02;6.78;;;10.20;99.90;;;;;;5033195;28;20041;-78
2023/10/17 12:11:17;;;;;;;10.57;6.63;;;10.20;99.90;;;;;;5022322;28;20041;-78
2023/10/17 12:14:03;;;;;;;15.80;8.30;;;10.20;99.90;;;;;;5013847;28;20637;-78
2023/10/17 12:16:53;;;;;;;9.98;6.82;;;10.30;99.90;;;;;;5013228;28;20283;-77
2023/10/17 12:19:40;;;;;;;10.93;7.60;;;10.30;99.90;;;;;;5039363;28;20044;-77
2023/10/17 12:22:26;;;;;;;12.25;7.40;;;10.30;99.90;;;;;;5019481;28;20068;-77
2023/10/17 12:25:23;;;;;;;9.70;7.25;;;10.30;99.90;;;;;;5032286;28;20040;-77
2023/10/17 12:28:10;;;;;;;16.38;7.18;;;10.30;99.90;;;;;;5031182;28;20071;-77
2023/10/17 12:30:57;;;;;;;8.50;6.83;;;10.40;99.90;;;;;;5052389;28;20464;-78
2023/10/17 12:33:44;;;;;;;11.77;6.85;;;11.20;99.90;;;;;;5039505;28;20120;-78
2023/10/17 12:36:30;;;;;;;9.98;6.15;;;11.20;99.90;;;;;;5040341;28;20060;-77
2023/10/17 12:39:16;;;;;;;14.40;6.68;;;11.10;99.90;;;;;;5038605;28;20032;-78
2023/10/17 12:42:03;;;;;;;10.23;5.78;;;11.50;99.90;;;;;;5039785;28;20453;-77
2023/10/17 12:44:50;;;;;;;9.25;6.25;;;11.70;99.90;;;;;;5038518;28;20048;-78
2023/10/17 12:47:38;;;;;;;9.88;6.28;;;11.90;99.90;;;;;;5039710;28;20091;-79
2023/10/17 12:50:24;;;;;;;9.60;6.10;;;12.40;99.90;;;;;;5028805;28;20029;-79
2023/10/17 12:53:13;;;;;;;8.60;6.45;;;13.10;99.90;;;;;;5012959;28;20061;-79
2023/10/17 12:55:59;;;;;;;9.70;4.95;;;13.00;99.90;;;;;;5040534;28;20036;-79
2023/10/17 12:58:45;;;;;;;6.93;5.13;;;13.60;99.90;;;;;;5027915;28;20117;-80
2023/10/17 13:01:31;;;;;;;9.23;5.72;;;14.20;99.90;;;;;;5042105;28;20404;-79
2023/10/17 13:04:19;;;;;;;13.20;6.30;;;14.70;99.90;;;;;;5041237;28;20051;-79
2023/10/17 13:07:05;;;;;;;6.28;4.78;;;15.10;99.90;;;;;;5041861;28;20048;-79
2023/10/17 13:09:51;;;;;;;5.72;4.57;;;15.50;99.90;;;;;;5024507;28;20045;-77
2023/10/17 13:12:39;;;;;;;6.72;4.25;;;15.90;99.90;;;;;;5022144;28;20123;-78
2023/10/17 13:15:25;;;;;;;7.85;3.90;;;16.00;99.90;;;;;;5019021;28;20041;-80
2023/10/17 13:18:12;;;;;;;5.68;3.33;;;16.50;99.90;;;;;;5040625;28;20037;-79
2023/10/17 13:21:06;;;;;;;4.97;3.08;;;16.70;99.90;;;;;;5039471;28;20049;-78
2023/10/17 13:23:52;;;;;;;5.82;3.13;;;15.90;99.90;;;;;;5057170;28;20048;-78
2023/10/17 13:26:38;;;;;;;6.50;3.30;;;15.20;99.90;;;;;;5050753;28;20037;-78
2023/10/17 13:29:24;;;;;;;7.07;3.28;;;14.60;99.90;;;;;;5020937;28;20041;-77
2023/10/17 13:32:12;;;;;;;4.78;2.78;;;14.20;99.90;;;;;;5005681;28;20033;-77
2023/10/17 13:34:58;;;;;;;5.03;3.28;;;13.90;99.90;;;;;;5013532;28;20048;-77
2023/10/17 13:37:51;;;;;;;5.07;3.10;;;13.70;99.90;;;;;;5045953;28;20072;-77
2023/10/17 13:40:38;;;;;;;5.38;3.50;;;13.40;99.90;;;;;;5048756;28;20049;-77
2023/10/17 13:43:24;;;;;;;5.55;3.00;;;13.30;99.90;;;;;;5024523;28;20449;-78
2023/10/17 13:46:17;;;;;;;5.07;3.05;;;13.20;99.90;;;;;;5020163;28;20534;-78
2023/10/17 13:49:05;;;;;;;5.95;3.15;;;13.00;99.90;;;;;;5006863;28;20094;-75
2023/10/17 13:51:54;;;;;;;6.75;3.78;;;13.00;99.90;;;;;;5004591;28;20052;-77
2023/10/17 13:54:40;;;;;;;5.28;3.30;;;12.90;99.90;;;;;;5035233;28;20041;-75
2023/10/17 13:57:29;;;;;;;6.22;3.03;;;12.90;99.90;;;;;;5004089;28;20045;-76
2023/10/17 14:00:21;;;;;;;6.55;2.88;;;12.90;99.90;;;;;;5018120;28;20045;-76
2023/10/17 14:03:13;;;;;;;5.93;3.00;;;12.90;99.90;;;;;;5036413;28;20036;-75
2023/10/17 14:05:59;;;;;;;6.53;3.10;;;12.80;99.90;;;;;;5034130;28;20119;-75
2023/10/17 14:08:45;;;;;;;6.10;2.85;;;12.70;99.90;;;;;;5018222;28;20045;-75
2023/10/17 14:11:32;;;;;;;6.82;3.30;;;12.60;99.90;;;;;;5021813;28;20064;-75
2023/10/17 14:14:18;;;;;;;17.55;10.23;;;12.50;99.90;;;;;;5047604;28;20072;-75
2023/10/17 14:17:06;;;;;;;10.00;6.10;;;12.50;99.90;;;;;;5005431;28;20041;-75
2023/10/17 14:20:05;;;;;;;8.67;5.80;;;12.50;99.90;;;;;;5054351;28;20055;-75
2023/10/17 14:23:09;;;;;;;7.93;5.70;;;12.60;99.90;;;;;;5036165;28;20047;-75
2023/10/17 14:26:03;;;;;;;5.78;4.38;;;12.80;99.90;;;;;;5058425;28;20037;-75
2023/10/17 14:28:52;;;;;;;8.95;3.75;;;12.80;99.90;;;;;;5026536;28;20072;-75
2023/10/17 14:31:38;;;;;;;5.50;2.55;;;12.80;99.90;;;;;;5028200;28;20844;-75
2023/10/17 14:34:24;;;;;;;6.72;2.95;;;12.80;99.90;;;;;;5026416;28;20123;-75
2023/10/17 14:37:13;;;;;;;6.43;2.38;;;12.90;99.90;;;;;;5040881;28;20091;-75
2023/10/17 14:40:00;;;;;;;4.53;2.28;;;12.80;99.90;;;;;;5030220;28;20055;-75
2023/10/17 14:42:47;;;;;;;3.15;1.67;;;12.90;99.90;;;;;;5042802;28;20044;-75
2023/10/17 14:45:38;;;;;;;2.65;1.55;;;12.80;99.90;;;;;;5038400;28;20036;-75
2023/10/17 14:48:25;;;;;;;4.00;2.08;;;12.80;99.90;;;;;;5020730;28;20068;-75
2023/10/17 14:51:15;;;;;;;2.80;1.83;;;12.90;99.90;;;;;;5060857;28;20037;-75
2023/10/17 14:54:01;;;;;;;3.63;1.60;;;12.90;99.90;;;;;;5011742;28;20534;-75
2023/10/17 14:56:47;;;;;;;2.85;1.40;;;13.00;99.90;;;;;;5025895;28;20128;-75
2023/10/17 14:59:40;;;;;;;3.00;1.52;;;13.00;99.90;;;;;;5023920;28;20068;-77
2023/10/17 15:02:26;;;;;;;3.70;2.00;;;13.00;99.90;;;;;;5029247;28;20365;-78
2023/10/17 15:05:13;;;;;;;3.45;1.55;;;13.00;99.90;;;;;;5040793;28;20141;-78
2023/10/17 15:07:59;;;;;;;6.55;1.50;;;13.00;99.90;;;;;;5047182;28;20560;-77
2023/10/17 15:10:48;;;;;;;4.53;1.40;;;13.00;99.90;;;;;;5051486;28;20087;-77
2023/10/17 15:13:34;;;;;;;6.75;1.88;;;12.90;99.90;;;;;;5027607;28;20040;-77
2023/10/17 15:16:21;;;;;;;4.45;1.90;;;12.80;99.90;;;;;;5042188;28;20083;-78
2023/10/17 15:19:08;;;;;;;4.38;1.92;;;12.80;99.90;;;;;;5030368;28;20033;-78
2023/10/17 15:21:54;;;;;;;3.80;2.10;;;12.70;99.90;;;;;;5013123;28;20047;-78
2023/10/17 15:24:40;;;;;;;7.45;2.10;;;12.70;99.90;;;;;;5036271;28;20598;-78
2023/10/17 15:27:26;;;;;;;3.17;2.00;;;12.70;99.90;;;;;;5028499;28;20091;-78
2023/10/17 15:30:12;;;;;;;6.85;2.53;;;12.60;99.90;;;;;;5012515;28;20377;-78
2023/10/17 15:32:59;;;;;;;5.90;2.10;;;12.60;99.90;;;;;;5028406;28;20102;-77
2023/10/17 15:35:46;;;;;;;5.15;2.30;;;12.50;99.90;;;;;;5009646;28;20033;-78
2023/10/17 15:38:32;;;;;;;3.78;2.15;;;12.50;99.90;;;;;;5057663;28;20485;-78
2023/10/17 15:41:21;;;;;;;3.08;1.60;;;12.40;99.90;;;;;;5027034;28;20068;-78
2023/10/17 15:44:07;;;;;;;3.15;1.92;;;12.40;99.90;;;;;;5060921;28;20122;-78
2023/10/17 15:46:54;;;;;;;4.10;1.77;;;12.30;99.90;;;;;;5027282;28;20055;-78
2023/10/17 15:49:40;;;;;;;4.65;2.30;;;12.30;99.90;;;;;;5033083;28;20075;-77
2023/10/17 15:52:26;;;;;;;4.85;2.33;;;12.20;99.90;;;;;;5060916;28;20048;-77
2023/10/17 15:55:12;;;;;;;8.38;3.42;;;12.10;99.90;;;;;;5060364;28;20468;-78
2023/10/17 15:57:59;;;;;;;5.97;2.50;;;12.10;99.90;;;;;;5057645;28;20619;-78
2023/10/17 16:00:46;;;;;;;3.88;2.30;;;12.00;99.90;;;;;;5040445;28;20036;-78
2023/10/17 16:03:33;;;;;;;5.53;2.65;;;11.90;99.90;;;;;;5048235;28;20060;-78
2023/10/17 16:06:19;;;;;;;3.80;2.08;;;11.80;99.90;;;;;;5052376;28;20105;-77
2023/10/17 16:09:07;;;;;;;3.75;2.20;;;11.70;99.90;;;;;;5052653;28;20053;-77
2023/10/17 16:11:55;;;;;;;5.47;2.50;;;11.50;99.90;;;;;;5039227;28;20017;-79
2023/10/17 16:14:43;;;;;;;;;;;11.50;99.90;;;;;;5054798;28;20072;-77
2023/10/17 16:17:29;;;;;;;6.20;2.30;;;11.40;99.90;;;;;;5065560;28;19897;-78
2023/10/17 16:20:15;;;;;;;7.40;2.72;;;11.30;99.90;;;;;;5052331;28;20013;-77
2023/10/17 16:23:01;;;;;;;8.65;2.80;;;11.20;99.90;;;;;;5052194;28;20044;-77
2023/10/17 16:25:52;;;;;;;9.95;3.30;;;11.10;99.90;;;;;;5038080;28;20055;-77
2023/10/17 16:28:38;;;;;;;4.72;2.53;;;11.00;99.90;;;;;;5051891;28;20035;-77
2023/10/17 16:31:25;;;;;;;5.18;2.40;;;10.90;99.90;;;;;;5079997;28;20061;-79
2023/10/17 16:34:14;;;;;;;6.30;2.35;;;10.80;99.90;;;;;;5065894;28;20111;-78
2023/10/17 16:37:01;;;;;;;6.00;2.42;;;10.70;99.90;;;;;;5052775;28;20013;-77
2023/10/17 16:39:47;;;;;;;7.32;2.40;;;10.60;99.90;;;;;;5062790;28;20073;-80
2023/10/17 16:42:33;;;;;;;3.97;2.20;;;10.50;99.90;;;;;;5045452;28;20051;-80
2023/10/17 16:45:19;;;;;;;5.55;3.05;;;10.50;99.90;;;;;;5044676;28;20036;-80
2023/10/17 16:48:05;;;;;;;5.80;2.97;;;10.40;99.90;;;;;;5062922;28;20099;-80
2023/10/17 16:50:53;;;;;;;5.35;2.90;;;10.30;99.90;;;;;;5025550;28;20033;-80
2023/10/17 16:53:42;;;;;;;6.88;3.08;;;10.30;99.90;;;;;;5041453;28;20063;-80